• Join FlightAware (Why Join?)
  • Login
  • US Flag 
06:17AM EST


 

Airport Tracker/Info


-or-


 

Live Flight TrackerFlight Track Log ✈ SKW5294 ✈ 24.06.2013 ✈ KCRQ - KLAX

Flight Track Log - Related Links

Times and Time Zones

All times are in EDT time to prevent confusion due to time zone crossing. See the SKW5294 flight status page for this flight to view local times or setup timezone preferences in your user account.

Time Position Orientation Groundspeed Altitude Reporting Facility
EDT Latitude Longitude Course Direction KTS MPH feet Rate Location/Type
07:13PM 33.1167 -117.4000 270° West 198 228 3,900  Level Southern California TRACON
07:14PM 33.1156 -117.4386 268° West 187 215 5,300 1,920 Climbing Los Angeles Center
07:15PM 33.1097 -117.4969 263° West 182 209 7,400 1,260 Climbing Los Angeles Center
07:16PM 33.1314 -117.5531 295° West 206 237 8,000 240 Climbing Los Angeles Center
07:17PM 33.3060 -117.5300 312° West  Level FlightAware Approximate
07:17PM 33.1800 -117.6219 310° West 225 259 8,000  Level Los Angeles Center
07:18PM 33.2208 -117.6789 311° West 225 259 8,000  Level Los Angeles Center
07:19PM 33.2633 -117.7364 311° West 229 264 8,000  Level Los Angeles Center
07:20PM 33.3042 -117.7939 310° West 228 262 8,000  Level Los Angeles Center
07:21PM 33.3442 -117.8517 310° West 226 260 8,000  Level Los Angeles Center
07:22PM 33.3867 -117.9103 311° West 231 266 8,000  Level Los Angeles Center
07:23PM 33.4472 -117.9339 342° North 235 270 8,000  Level Los Angeles Center
07:24PM 33.5231 -117.9575 345° North 234 269 8,000 -300 Level Los Angeles Center
07:25PM 33.5881 -117.9825 342° North 243 280 7,500 -480 Descending Los Angeles Center
07:26PM 33.6667 -118.0167 340° North 255 293 7,100 -300 Descending Southern California TRACON
07:27PM 33.7333 -118.0333 348° North 249 287 7,000 -60 Descending Southern California TRACON
07:28PM 33.7833 -118.0500 345° North 245 282 7,000  Level Southern California TRACON
07:29PM 33.8500 -118.0333 12° North 232 267 7,000 -540 Level Southern California TRACON
07:30PM 33.9167 -118.0333 360° North 207 238 6,000 -900 Descending Southern California TRACON
07:31PM 33.9500 -118.0667 320° Northwest 187 215 5,200 -900 Descending Southern California TRACON
07:32PM 33.9667 -118.1333 287° West 206 237 4,300 -1,080 Descending Southern California TRACON
07:33PM 33.9500 -118.2000 253° West 199 229 3,100 -1,200 Descending Southern California TRACON
07:34PM 33.9500 -118.2667 270° West 199 229 2,000 -960 Descending Southern California TRACON
07:35PM 33.9500 -118.3333 270° West 167 192 1,200 -780 Descending Southern California TRACON
07:35PM 33.9422 -118.3411 220° Southwest 181 208 900 -540 Descending Los Angeles Center
07:37PM 33.9386 -118.3856 264° West 151 174 400 -480 Descending Los Angeles Center